createdAt,value
2018-02-11T00:01:35.437Z,60.70
2018-02-11T00:04:03.018Z,60.60
2018-02-11T00:06:30.591Z,61.00
2018-02-11T00:08:58.198Z,61.10
2018-02-11T00:11:25.740Z,60.90
2018-02-11T00:13:53.285Z,61.00
2018-02-11T00:16:21.811Z,60.20
2018-02-11T00:18:49.345Z,60.10
2018-02-11T00:21:16.943Z,60.50
2018-02-11T00:23:44.476Z,60.50
2018-02-11T00:26:12.099Z,60.70
2018-02-11T00:28:39.656Z,60.40
2018-02-11T00:31:07.997Z,60.40
2018-02-11T00:33:35.581Z,60.30
2018-02-11T00:36:03.473Z,60.50
2018-02-11T00:38:31.076Z,60.40
2018-02-11T00:40:58.684Z,60.60
2018-02-11T00:43:26.270Z,60.60
2018-02-11T00:45:53.854Z,60.50
2018-02-11T00:48:21.407Z,60.60
2018-02-11T00:50:49.036Z,60.70
2018-02-11T00:53:16.607Z,60.70
2018-02-11T00:55:44.184Z,60.70
2018-02-11T00:58:11.758Z,60.80
2018-02-11T01:00:39.369Z,60.80
2018-02-11T01:03:06.957Z,60.80
2018-02-11T01:05:35.445Z,60.70
2018-02-11T01:08:03.030Z,60.70
2018-02-11T01:10:30.621Z,60.80
2018-02-11T01:12:58.182Z,61.10
2018-02-11T01:15:26.563Z,60.90
2018-02-11T01:17:54.126Z,60.90
2018-02-11T01:20:22.431Z,61.20
2018-02-11T01:22:50.022Z,61.20
2018-02-11T01:25:17.576Z,61.00
2018-02-11T01:27:45.942Z,61.10
2018-02-11T01:30:13.487Z,61.10
2018-02-11T01:32:41.095Z,61.40
2018-02-11T01:35:08.663Z,61.30
2018-02-11T01:37:36.256Z,61.30
2018-02-11T01:40:03.851Z,61.40
2018-02-11T01:42:31.405Z,61.10
2018-02-11T01:44:58.983Z,61.20
2018-02-11T01:47:26.533Z,61.20
2018-02-11T01:50:06.806Z,61.30
2018-02-11T01:52:34.367Z,61.40
2018-02-11T01:55:01.921Z,61.40
2018-02-11T01:57:30.280Z,61.40
2018-02-11T01:59:57.871Z,61.40
2018-02-11T02:02:25.471Z,61.40
2018-02-11T02:04:53.085Z,61.40
2018-02-11T02:07:20.636Z,61.50
2018-02-11T02:09:48.999Z,61.70
2018-02-11T02:12:16.572Z,61.70
2018-02-11T02:14:44.190Z,61.50
2018-02-11T02:17:12.500Z,61.30
2018-02-11T02:19:40.870Z,61.50
2018-02-11T02:22:08.494Z,61.60
2018-02-11T02:24:36.091Z,62.40
2018-02-11T02:27:04.444Z,61.70
2018-02-11T02:29:32.007Z,61.70
2018-02-11T02:31:59.654Z,61.70
2018-02-11T02:34:28.047Z,62.20
2018-02-11T02:36:55.670Z,62.10
2018-02-11T02:39:23.242Z,62.40
2018-02-11T02:41:50.801Z,62.30
2018-02-11T02:44:18.418Z,62.70
2018-02-11T02:46:46.754Z,62.70
2018-02-11T02:49:15.133Z,63.00
2018-02-11T02:51:42.703Z,63.10
2018-02-11T02:54:11.033Z,62.90
2018-02-11T02:56:39.376Z,63.20
2018-02-11T02:59:07.704Z,62.70
2018-02-11T03:01:35.415Z,62.80
2018-02-11T03:04:03.000Z,62.80
2018-02-11T03:06:31.347Z,63.00
2018-02-11T03:08:58.937Z,63.00
2018-02-11T03:11:26.494Z,63.20
2018-02-11T03:13:54.083Z,63.10
2018-02-11T03:16:21.656Z,63.00
2018-02-11T03:18:49.958Z,63.10
2018-02-11T03:21:18.341Z,63.10
2018-02-11T03:23:45.891Z,63.20
2018-02-11T03:26:14.240Z,63.20
2018-02-11T03:28:42.542Z,63.20
2018-02-11T03:31:10.150Z,63.10
2018-02-11T03:33:37.696Z,63.20
2018-02-11T03:36:31.162Z,63.40
2018-02-11T03:38:58.758Z,63.60
2018-02-11T03:41:27.089Z,63.70
2018-02-11T03:43:55.486Z,63.70
2018-02-11T03:46:23.061Z,63.70
2018-02-11T03:48:50.651Z,63.30
2018-02-11T03:51:18.202Z,63.10
2018-02-11T03:53:46.528Z,63.30
2018-02-11T03:56:14.881Z,63.10
2018-02-11T03:58:42.445Z,63.00
2018-02-11T04:01:10.095Z,63.20
2018-02-11T04:03:37.640Z,62.80
2018-02-11T04:06:05.433Z,62.50
2018-02-11T04:08:32.994Z,62.40
2018-02-11T04:11:00.634Z,62.30
2018-02-11T04:13:28.306Z,62.10
2018-02-11T04:15:55.865Z,61.90
2018-02-11T04:18:23.462Z,61.90
2018-02-11T04:20:51.031Z,61.60
2018-02-11T04:23:18.667Z,61.30
2018-02-11T04:25:47.042Z,61.10
2018-02-11T04:28:14.620Z,61.10
2018-02-11T04:30:42.165Z,61.00
2018-02-11T04:33:09.747Z,60.90
2018-02-11T04:35:37.286Z,61.10
2018-02-11T04:38:05.630Z,60.80
2018-02-11T04:40:33.865Z,60.90
2018-02-11T04:43:01.417Z,60.90
2018-02-11T04:45:29.000Z,60.80
2018-02-11T04:47:56.570Z,60.70
2018-02-11T04:50:24.220Z,60.20
2018-02-11T04:52:51.778Z,60.50
2018-02-11T04:55:19.344Z,60.80
2018-02-11T04:57:47.689Z,61.00
2018-02-11T05:00:15.313Z,60.80
2018-02-11T05:02:43.682Z,61.20
2018-02-11T05:05:11.235Z,61.20
2018-02-11T05:07:38.772Z,61.20
2018-02-11T05:10:06.364Z,61.30
2018-02-11T05:12:33.910Z,61.50
2018-02-11T05:15:01.437Z,61.70
2018-02-11T05:17:29.072Z,62.10
2018-02-11T05:19:56.655Z,62.20
2018-02-11T05:22:24.270Z,62.20
2018-02-11T05:24:51.799Z,62.20
2018-02-11T05:27:20.174Z,62.80
2018-02-11T05:29:47.720Z,62.70
2018-02-11T05:32:15.264Z,62.80
2018-02-11T05:34:42.826Z,63.10
2018-02-11T05:37:10.393Z,62.80
2018-02-11T05:39:37.994Z,62.70
2018-02-11T05:42:06.756Z,62.80
2018-02-11T05:44:35.279Z,62.90
2018-02-11T05:47:02.855Z,62.50
2018-02-11T05:49:30.441Z,62.90
2018-02-11T05:51:58.176Z,63.20
2018-02-11T05:54:25.725Z,63.50
2018-02-11T05:56:54.040Z,63.30
2018-02-11T05:59:21.853Z,63.30
2018-02-11T06:01:50.191Z,63.70
2018-02-11T06:04:17.747Z,63.70
2018-02-11T06:06:45.882Z,63.70
2018-02-11T06:09:13.446Z,63.70
2018-02-11T06:11:40.988Z,63.70
2018-02-11T06:14:09.536Z,64.00
2018-02-11T06:16:37.062Z,64.00
2018-02-11T06:19:05.433Z,64.30
2018-02-11T06:21:33.868Z,64.50
2018-02-11T06:24:01.423Z,64.50
2018-02-11T06:26:29.088Z,64.20
2018-02-11T06:28:56.854Z,64.20
2018-02-11T06:31:25.169Z,64.20
2018-02-11T06:33:52.710Z,64.20
2018-02-11T06:36:21.133Z,64.00
2018-02-11T06:38:48.692Z,64.10
2018-02-11T06:41:16.232Z,64.10
2018-02-11T06:43:43.992Z,64.20
2018-02-11T06:46:12.321Z,63.90
2018-02-11T06:48:39.875Z,63.90
2018-02-11T06:51:08.518Z,63.70
2018-02-11T06:53:36.065Z,63.80
2018-02-11T06:56:03.660Z,63.90
2018-02-11T06:58:31.228Z,64.00
2018-02-11T07:00:58.801Z,64.00
2018-02-11T07:03:26.373Z,64.00
2018-02-11T07:05:53.930Z,63.80
2018-02-11T07:08:21.528Z,63.50
2018-02-11T07:10:49.970Z,63.00
2018-02-11T07:13:17.527Z,63.00
2018-02-11T07:15:45.113Z,62.90
2018-02-11T07:18:12.674Z,62.20
2018-02-11T07:20:40.273Z,62.00
2018-02-11T07:23:07.810Z,61.60
2018-02-11T07:25:35.645Z,61.30
2018-02-11T07:28:03.182Z,61.20
2018-02-11T07:30:30.731Z,60.00
2018-02-11T07:32:58.313Z,59.20
2018-02-11T07:35:25.900Z,57.60
2018-02-11T07:37:53.559Z,56.60
2018-02-11T07:40:21.159Z,56.50
2018-02-11T07:42:48.828Z,56.90
2018-02-11T07:45:16.375Z,56.90
2018-02-11T07:47:43.997Z,56.10
2018-02-11T07:50:12.346Z,52.30
2018-02-11T07:52:40.000Z,52.20
2018-02-11T07:55:07.664Z,50.20
2018-02-11T07:57:36.958Z,48.80
2018-02-11T08:00:04.519Z,48.70
2018-02-11T08:02:32.867Z,48.20
2018-02-11T08:05:00.417Z,48.10
2018-02-11T08:07:28.097Z,47.40
2018-02-11T08:09:55.714Z,45.40
2018-02-11T08:12:23.284Z,45.00
2018-02-11T08:14:50.880Z,45.40
2018-02-11T08:17:18.457Z,45.50
2018-02-11T08:19:46.057Z,46.30
2018-02-11T08:22:13.670Z,46.60
2018-02-11T08:24:41.207Z,47.70
2018-02-11T08:27:08.779Z,48.50
2018-02-11T08:29:36.435Z,49.90
2018-02-11T08:32:04.015Z,50.00
2018-02-11T08:37:24.599Z,49.40
2018-02-11T08:39:52.964Z,49.60
2018-02-11T08:42:20.539Z,49.60
2018-02-11T08:44:48.149Z,49.40
2018-02-11T08:47:16.464Z,50.50
2018-02-11T08:49:44.811Z,51.30
2018-02-11T08:52:12.424Z,51.30
2018-02-11T08:54:40.063Z,51.00
2018-02-11T08:57:08.389Z,51.20
2018-02-11T08:59:36.987Z,51.30
2018-02-11T09:02:04.555Z,51.30
2018-02-11T09:04:32.100Z,51.50
2018-02-11T09:07:00.456Z,50.80
2018-02-11T09:09:28.069Z,50.90
2018-02-11T09:11:56.410Z,51.00
2018-02-11T09:14:24.746Z,51.20
2018-02-11T09:16:52.347Z,51.10
2018-02-11T09:19:20.644Z,51.00
2018-02-11T09:21:48.238Z,51.10
2018-02-11T09:24:15.832Z,51.40
2018-02-11T09:26:43.379Z,51.50
2018-02-11T09:29:10.960Z,52.00
2018-02-11T09:31:38.503Z,52.10
2018-02-11T09:34:06.134Z,52.00
2018-02-11T09:36:33.699Z,51.50
2018-02-11T09:39:01.239Z,51.00
2018-02-11T09:41:28.908Z,50.30
2018-02-11T09:43:56.461Z,49.70
2018-02-11T09:46:24.069Z,49.20
2018-02-11T09:48:51.615Z,49.10
2018-02-11T09:51:19.214Z,49.00
2018-02-11T09:53:46.777Z,48.30
2018-02-11T09:56:15.178Z,47.30
2018-02-11T09:58:42.852Z,47.20
2018-02-11T10:01:10.444Z,47.10
2018-02-11T10:03:38.023Z,46.00
2018-02-11T10:06:06.137Z,46.20
2018-02-11T10:08:33.718Z,46.00
2018-02-11T10:11:01.259Z,45.80
2018-02-11T10:13:28.982Z,45.30
2018-02-11T10:15:56.656Z,44.50
2018-02-11T10:18:24.226Z,44.30
2018-02-11T10:20:51.834Z,45.20
2018-02-11T10:23:19.446Z,45.20
2018-02-11T10:25:47.051Z,45.40
2018-02-11T10:28:15.390Z,46.30
2018-02-11T10:30:42.991Z,46.20
2018-02-11T10:33:11.360Z,47.40
2018-02-11T10:35:39.014Z,47.50
2018-02-11T10:38:07.336Z,48.20
2018-02-11T10:40:36.688Z,47.30
2018-02-11T10:43:04.246Z,47.30
2018-02-11T10:45:31.832Z,47.30
2018-02-11T10:48:00.136Z,47.10
2018-02-11T10:50:28.497Z,46.80
2018-02-11T10:52:56.136Z,46.70
2018-02-11T10:55:23.701Z,47.30
2018-02-11T10:57:52.209Z,46.80
2018-02-11T11:00:19.812Z,46.30
2018-02-11T11:02:47.416Z,45.70
2018-02-11T11:05:15.081Z,47.00
2018-02-11T11:07:42.677Z,46.10
2018-02-11T11:10:10.285Z,46.10
2018-02-11T11:12:38.608Z,44.90
2018-02-11T11:15:06.990Z,45.00
2018-02-11T11:17:34.541Z,45.00
2018-02-11T11:20:02.950Z,46.00
2018-02-11T11:22:30.583Z,45.90
2018-02-11T11:24:58.186Z,45.90
2018-02-11T11:27:25.735Z,45.20
2018-02-11T11:29:53.297Z,44.90
2018-02-11T11:32:21.647Z,44.90
2018-02-11T11:34:49.994Z,45.40
2018-02-11T11:37:17.591Z,45.40
2018-02-11T11:39:46.021Z,42.90
2018-02-11T11:42:13.613Z,42.90
2018-02-11T11:44:41.272Z,44.20
2018-02-11T11:47:09.853Z,45.50
2018-02-11T11:49:37.456Z,46.10
2018-02-11T11:52:05.878Z,47.00
2018-02-11T11:54:33.487Z,46.80
2018-02-11T11:57:01.856Z,46.40
2018-02-11T11:59:29.563Z,46.40
2018-02-11T12:01:57.947Z,47.10
2018-02-11T12:04:25.616Z,47.00
2018-02-11T12:06:53.915Z,47.80
2018-02-11T12:09:21.468Z,47.70
2018-02-11T12:11:49.085Z,48.40
2018-02-11T12:14:16.712Z,49.00
2018-02-11T12:16:44.298Z,49.70
2018-02-11T12:19:11.832Z,49.00
2018-02-11T12:21:39.415Z,48.90
2018-02-11T12:24:07.709Z,49.10
2018-02-11T12:26:35.564Z,48.80
2018-02-11T12:29:03.906Z,48.60
2018-02-11T12:31:31.475Z,48.50
2018-02-11T12:33:59.088Z,49.30
2018-02-11T12:36:26.660Z,49.10
2018-02-11T12:39:01.376Z,49.70
2018-02-11T12:41:28.950Z,50.30
2018-02-11T12:43:58.775Z,52.20
2018-02-11T12:46:26.426Z,52.20
2018-02-11T12:48:54.059Z,52.30
2018-02-11T12:51:21.657Z,51.90
2018-02-11T12:53:50.204Z,52.10
2018-02-11T12:56:18.524Z,52.40
2018-02-11T12:58:46.122Z,52.40
2018-02-11T13:01:13.697Z,53.30
2018-02-11T13:03:41.259Z,53.50
2018-02-11T13:06:08.858Z,53.30
2018-02-11T13:08:36.421Z,54.00
2018-02-11T13:11:04.029Z,53.60
2018-02-11T13:13:31.606Z,53.60
2018-02-11T13:15:59.212Z,54.00
2018-02-11T13:18:26.773Z,53.60
2018-02-11T13:20:54.329Z,54.10
2018-02-11T13:23:22.713Z,54.60
2018-02-11T13:25:50.384Z,54.60
2018-02-11T13:28:18.756Z,55.80
2018-02-11T13:30:46.418Z,55.80
2018-02-11T13:33:13.971Z,56.20
2018-02-11T13:35:41.600Z,55.80
2018-02-11T13:38:09.995Z,56.00
2018-02-11T13:40:37.548Z,56.10
2018-02-11T13:43:06.338Z,57.20
2018-02-11T13:45:34.324Z,57.90
2018-02-11T13:48:02.700Z,59.50
2018-02-11T13:50:30.325Z,59.50
2018-02-11T13:52:58.862Z,59.50
2018-02-11T13:55:26.514Z,60.20
2018-02-11T13:57:54.126Z,60.20
2018-02-11T14:00:21.845Z,61.50
2018-02-11T14:02:49.469Z,61.90
2018-02-11T14:05:17.933Z,62.20
2018-02-11T14:07:46.333Z,62.20
2018-02-11T14:10:15.847Z,62.50
2018-02-11T14:12:43.468Z,62.80
2018-02-11T14:15:11.144Z,63.00
2018-02-11T14:17:38.798Z,63.70
2018-02-11T14:20:06.430Z,63.80
2018-02-11T14:22:34.818Z,64.90
2018-02-11T14:25:02.508Z,64.90
2018-02-11T14:27:32.186Z,65.10
2018-02-11T14:29:59.772Z,65.00
2018-02-11T14:32:27.381Z,65.10
2018-02-11T14:34:55.011Z,65.90
2018-02-11T14:37:22.646Z,67.20
2018-02-11T14:39:50.219Z,67.80
2018-02-11T14:42:17.798Z,67.90
2018-02-11T14:44:45.331Z,68.70
2018-02-11T14:47:12.913Z,69.50
2018-02-11T14:49:41.265Z,70.40
2018-02-11T14:52:09.788Z,70.40
2018-02-11T14:54:38.160Z,70.70
2018-02-11T14:57:06.477Z,70.70
2018-02-11T14:59:34.790Z,71.70
2018-02-11T15:02:02.372Z,71.80
2018-02-11T15:04:29.969Z,72.00
2018-02-11T15:06:58.263Z,72.90
2018-02-11T15:09:25.863Z,72.90
2018-02-11T15:11:53.435Z,72.80
2018-02-11T15:14:21.764Z,72.90
2018-02-11T15:16:49.425Z,72.90
2018-02-11T15:19:17.088Z,73.20
2018-02-11T15:21:44.676Z,73.10
2018-02-11T15:24:12.225Z,73.40
2018-02-11T15:26:39.817Z,72.60
2018-02-11T15:29:09.295Z,72.60
2018-02-11T15:31:37.759Z,72.80
2018-02-11T15:34:05.353Z,72.70
2018-02-11T15:36:33.738Z,73.60
2018-02-11T15:39:01.378Z,73.60
2018-02-11T15:41:29.011Z,73.80
2018-02-11T15:43:56.627Z,73.80
2018-02-11T15:46:24.188Z,73.90
2018-02-11T15:48:51.873Z,74.30
2018-02-11T15:51:19.505Z,74.30
2018-02-11T15:53:47.092Z,74.30
2018-02-11T15:56:14.707Z,74.40
2018-02-11T15:58:43.061Z,74.30
2018-02-11T16:01:11.436Z,74.60
2018-02-11T16:03:38.970Z,74.70
2018-02-11T16:06:07.489Z,74.40
2018-02-11T16:08:35.990Z,74.80
2018-02-11T16:11:03.661Z,74.80
2018-02-11T16:13:31.314Z,74.70
2018-02-11T16:15:58.950Z,74.90
2018-02-11T16:18:26.521Z,75.00
2018-02-11T16:20:54.120Z,75.20
2018-02-11T16:23:21.863Z,75.10
2018-02-11T16:25:49.619Z,75.30
2018-02-11T16:28:17.411Z,75.20
2018-02-11T16:30:45.147Z,75.60
2018-02-11T16:33:14.787Z,75.40
2018-02-11T16:35:43.669Z,75.50
2018-02-11T16:38:11.607Z,75.60
2018-02-11T16:40:43.518Z,75.50
2018-02-11T16:43:11.323Z,75.90
2018-02-11T16:45:38.969Z,76.40
2018-02-11T16:48:08.051Z,76.60
2018-02-11T16:50:36.632Z,77.00
2018-02-11T16:53:04.277Z,77.00
2018-02-11T16:55:31.877Z,77.00
2018-02-11T16:57:59.614Z,76.80
2018-02-11T17:00:27.973Z,77.00
2018-02-11T17:02:55.527Z,77.00
2018-02-11T17:05:24.029Z,76.90
2018-02-11T17:07:52.442Z,77.10
2018-02-11T17:10:20.059Z,77.00
2018-02-11T17:12:47.690Z,77.30
2018-02-11T17:15:15.254Z,77.30
2018-02-11T17:17:42.870Z,77.40
2018-02-11T17:20:10.559Z,77.20
2018-02-11T17:22:38.170Z,77.00
2018-02-11T17:25:06.006Z,76.60
2018-02-11T17:27:33.618Z,76.30
2018-02-11T17:30:01.244Z,76.60
2018-02-11T17:32:28.906Z,76.60
2018-02-11T17:34:56.719Z,76.90
2018-02-11T17:37:25.168Z,76.90
2018-02-11T17:39:53.559Z,77.00
2018-02-11T17:42:21.232Z,76.90
2018-02-11T17:44:49.991Z,76.70
2018-02-11T17:47:17.266Z,76.70
2018-02-11T17:49:44.984Z,77.10
2018-02-11T17:52:12.542Z,77.10
2018-02-11T17:54:40.099Z,77.00
2018-02-11T17:57:07.856Z,77.20
2018-02-11T17:59:36.833Z,77.20
2018-02-11T18:02:04.421Z,76.70
2018-02-11T18:04:32.786Z,76.90
2018-02-11T18:07:00.428Z,76.90
2018-02-11T18:09:28.092Z,77.00
2018-02-11T18:11:55.715Z,76.50
2018-02-11T18:14:23.324Z,76.70
2018-02-11T18:16:50.884Z,76.60
2018-02-11T18:19:18.465Z,76.80
2018-02-11T18:21:46.305Z,76.50
2018-02-11T18:24:13.872Z,76.50
2018-02-11T18:26:41.516Z,76.70
2018-02-11T18:29:09.827Z,76.90
2018-02-11T18:31:37.613Z,76.50
2018-02-11T18:34:07.030Z,76.90
2018-02-11T18:36:34.930Z,77.00
2018-02-11T18:39:02.516Z,76.90
2018-02-11T18:41:30.232Z,76.70
2018-02-11T18:43:58.105Z,76.70
2018-02-11T18:46:25.798Z,76.80
2018-02-11T18:48:53.449Z,76.60
2018-02-11T18:51:22.103Z,76.80
2018-02-11T18:53:49.738Z,76.70
2018-02-11T18:56:18.084Z,76.80
2018-02-11T18:58:45.854Z,76.80
2018-02-11T19:01:13.482Z,76.40
2018-02-11T19:03:41.116Z,76.60
2018-02-11T19:06:08.883Z,76.70
2018-02-11T19:08:36.531Z,76.40
2018-02-11T19:11:04.898Z,76.80
2018-02-11T19:13:33.845Z,76.50
2018-02-11T19:16:02.207Z,76.90
2018-02-11T19:18:29.795Z,77.00
2018-02-11T19:20:58.313Z,77.40
2018-02-11T19:23:25.883Z,77.30
2018-02-11T19:25:53.456Z,77.40
2018-02-11T19:28:21.175Z,77.20
2018-02-11T19:30:48.775Z,77.50
2018-02-11T19:33:16.336Z,77.10
2018-02-11T19:35:44.758Z,76.90
2018-02-11T19:38:12.322Z,77.00
2018-02-11T19:40:40.680Z,77.10
2018-02-11T19:43:08.353Z,77.10
2018-02-11T19:45:35.913Z,77.10
2018-02-11T19:48:03.520Z,76.90
2018-02-11T19:50:31.234Z,76.90
2018-02-11T19:52:58.779Z,76.50
2018-02-11T19:55:26.315Z,76.80
2018-02-11T19:57:54.076Z,76.80
2018-02-11T20:00:22.400Z,76.40
2018-02-11T20:02:49.976Z,76.40
2018-02-11T20:05:18.436Z,76.90
2018-02-11T20:07:46.736Z,76.90
2018-02-11T20:10:14.306Z,77.00
2018-02-11T20:12:42.026Z,77.00
2018-02-11T20:15:09.706Z,77.00
2018-02-11T20:17:37.791Z,76.80
2018-02-11T20:20:06.846Z,76.80
2018-02-11T20:22:34.392Z,76.80
2018-02-11T20:25:01.943Z,76.70
2018-02-11T20:27:29.693Z,76.50
2018-02-11T20:29:57.229Z,76.80
2018-02-11T20:32:24.788Z,77.00
2018-02-11T20:34:52.465Z,76.90
2018-02-11T20:37:20.008Z,76.70
2018-02-11T20:39:47.557Z,76.80
2018-02-11T20:42:15.245Z,77.00
2018-02-11T20:44:42.797Z,76.90
2018-02-11T20:47:10.350Z,76.70
2018-02-11T20:49:38.567Z,76.40
2018-02-11T20:52:07.378Z,76.70
2018-02-11T20:54:34.944Z,76.70
2018-02-11T20:57:04.022Z,76.90
2018-02-11T20:59:32.486Z,76.90
2018-02-11T21:02:00.821Z,77.10
2018-02-11T21:04:29.340Z,76.90
2018-02-11T21:06:56.918Z,77.10
2018-02-11T21:09:24.451Z,77.10
2018-02-11T21:11:52.138Z,77.40
2018-02-11T21:14:19.693Z,76.80
2018-02-11T21:16:47.390Z,77.10
2018-02-11T21:19:15.916Z,76.60
2018-02-11T21:21:43.449Z,76.60
2018-02-11T21:24:10.982Z,76.70
2018-02-11T21:26:38.700Z,76.50
2018-02-11T21:29:06.263Z,76.60
2018-02-11T21:31:34.563Z,76.60
2018-02-11T21:34:02.574Z,76.60
2018-02-11T21:36:30.208Z,76.70
2018-02-11T21:38:57.781Z,76.60
2018-02-11T21:41:25.398Z,76.40
2018-02-11T21:43:52.954Z,76.60
2018-02-11T21:46:20.512Z,76.90
2018-02-11T21:48:48.192Z,77.00
2018-02-11T21:51:15.748Z,77.20
2018-02-11T21:53:43.288Z,77.00
2018-02-11T21:56:11.746Z,77.20
2018-02-11T21:58:39.318Z,77.30
2018-02-11T22:01:07.569Z,77.00
2018-02-11T22:03:35.604Z,76.40
2018-02-11T22:06:03.153Z,76.80
2018-02-11T22:08:31.564Z,77.00
2018-02-11T22:10:59.314Z,77.20
2018-02-11T22:13:26.860Z,77.40
2018-02-11T22:15:54.431Z,76.90
2018-02-11T22:18:22.564Z,76.90
2018-02-11T22:20:50.120Z,76.70
2018-02-11T22:23:17.664Z,76.40
2018-02-11T22:25:45.350Z,76.70
2018-02-11T22:28:12.918Z,77.30
2018-02-11T22:30:40.469Z,77.50
2018-02-11T22:33:08.230Z,77.00
2018-02-11T22:35:36.535Z,76.90
2018-02-11T22:38:04.849Z,76.30
2018-02-11T22:40:32.585Z,76.30
2018-02-11T22:43:00.878Z,77.20
2018-02-11T22:45:28.418Z,77.20
2018-02-11T22:47:56.863Z,77.90
2018-02-11T22:50:24.391Z,77.80
2018-02-11T22:52:51.932Z,77.50
2018-02-11T22:55:19.617Z,77.60
2018-02-11T22:57:47.930Z,77.50
2018-02-11T23:00:15.502Z,77.50
2018-02-11T23:02:43.167Z,77.40
2018-02-11T23:05:11.479Z,77.10
2018-02-11T23:07:39.821Z,76.90
2018-02-11T23:10:07.999Z,77.00
2018-02-11T23:12:35.545Z,76.70
2018-02-11T23:15:03.096Z,76.70
2018-02-11T23:17:30.744Z,76.20
2018-02-11T23:19:58.731Z,76.40
2018-02-11T23:22:27.054Z,76.20
2018-02-11T23:24:55.493Z,76.50
2018-02-11T23:27:23.821Z,76.70
2018-02-11T23:29:52.174Z,76.50
2018-02-11T23:32:19.842Z,76.70
2018-02-11T23:34:47.382Z,76.90
2018-02-11T23:37:14.926Z,77.20
2018-02-11T23:39:42.483Z,77.50
2018-02-11T23:42:10.068Z,77.10
2018-02-11T23:44:37.606Z,77.40
2018-02-11T23:47:05.464Z,77.20
2018-02-11T23:49:33.761Z,77.10
2018-02-11T23:52:01.339Z,77.70
2018-02-11T23:54:28.887Z,76.70
2018-02-11T23:56:56.489Z,76.60
2018-02-11T23:59:24.075Z,76.40
